Portada
METAR-TAF:

METAR-TAF

Aeropuertos :

Seyresse

Dax, Francia

latitud: 43-41N, longitud: 001-04W, altitud: 32 m

Observación

El informe se hizo hace 35 minutos, a las 03:00 UTC
Viento calma
Temperatura 16°C
Humedad 100%
Presión 1018 hPa

METAR: LFBY 200300Z AUTO 00000KT //// // ////// 16/16 Q1018

Hora: 05:35 (03:35 UTC)

Pronóstico

El informe se hizo hace 19 horas y 35 minutos, a las 08:00 UTC
Pronóstico válido del 19 a las 09 UTC al 19 a las 18 UTC
Viento 5 kt del este
Visibilidad: 7000 m
Nubes dispersas a una altura de 2500 ft
Cielo nuboso a una altura de 4500 ft
Evolucionando progresivamente
del 19 a las 11 UTC al 19 a las 13 UTC
Visibilidad 10 km o más
sin nubes por debajo de 1500 m y sin presencia de cumulonimbus.

TAF: LFBY 190800Z 1909/1918 09005KT 7000 SCT025 BKN045 BECMG 1911/1913 CAVOK

Observaciones y pronósticos meteorológicos de más de 4000 aeropuertos (mensajes METAR y TAF).

Los puntos amarillos y rojos representan las estaciones disponibles.

Ponga el ratón en el punto deseado para ver el nombre de la estación.

Haga clic para ver las observaciones y los pronósticos meteorológicos.

Para cambiar el mapa : haga clic en los botones verdes con una cruz de color negro para hacer un zoom, en el botón verde con un guión para alejar o en las flechas verdes para mapas adyacentes.


METAR-TAF: